Tiempo atmosférico en la estación meteorológica de Cádiz, Cadiz (1 m.)



Fecha
DESCASC
Temp. máxima en grados centígrados (hora)
DESCASC
Temp. mínima en grados centígrados (hora)
DESCASC
Temp. media en grados centígrados
DESCASC
Racha de viento máxima en m/sg (hora)
DESCASC
Velocidad máxima media en intervalos de 10 minutos(hora)
DESCASC
Precipitaciones diarias en mm
DESCASC
Precipitaciones de 00:00 a 06:00 en mm
DESCASC
Precipitaciones de 06:00 a 12:00 en mm
DESCASC
Precipitaciones de 12:00 a 18:00 en mm
DESCASC
Precipitaciones de 18:00 a 24:00 en mm
DESCASC
20-10-2019 20.2 (17:10) 16.9 (04:10) 18.6 10.56 (01:30) 6.67 (01:00) 1.2 1.2 0 0 0
19-10-2019 23.3 (16:20) 18.4 (05:20) 20.8 15.83 (22:20) 7.22 (22:20) 6.8 0 0 1.8 5
18-10-2019 23.9 (14:10) 18 (08:00) 20.9 5.83 (15:20) 3.61 (16:10) 0 0 0 0 0
17-10-2019 22.1 (15:30) 15.9 (00:00) 19 7.22 (17:10) 4.72 (15:20) 0 0 0 0 0
16-10-2019 21.2 (17:00) 13.9 (00:00) 17.6 7.5 (18:50) 5.28 (18:40) 0 0 0 0 0
15-10-2019 20.2 (16:10) 14.6 (00:00) 17.4 7.78 (02:50) 5.83 (03:00) 0 0 0 0 0
14-10-2019 22.5 (17:00) 19.4 (00:00) 20.9 9.72 (17:50) 6.11 (17:40) 1.9 0 1.9 0 0
13-10-2019 25.2 (13:10) 20.3 (00:00) 22.8 8.06 (15:30) 5.28 (15:30) 0 0 0 0 0
12-10-2019 26.3 (15:30) 20.6 (00:00) 23.4 11.39 (16:10) 8.33 (15:50) 0 0 0 0 0
11-10-2019 26.4 (15:20) 22.2 (00:00) 24.3 15 (02:30) 10.56 (03:00) 0 0 0 0 0
10-10-2019 27.2 (16:20) 20.7 (00:00) 24 14.17 (18:50) 10.83 (18:50) 0 0 0 0 0
09-10-2019 26.3 (14:50) 20.2 (00:00) 23.3 8.06 (08:30) 5 (01:20) 0 0 0 0 0
08-10-2019 28.4 (16:00) 20.2 (00:00) 24.3 14.17 (20:30) 10 (14:00) 0 0 0 0 0
07-10-2019 25.3 (15:40) 17.5 (00:00) 21.4 7.22 (21:50) 5.56 (21:50) 0 0 0 0 0
06-10-2019 24.2 (16:00) 18.2 (00:00) 21.2 6.67 (18:00) 4.72 (18:40) 0 0 0 0 0
05-10-2019 23.5 (15:10) 18 (00:00) 20.8 7.5 (17:10) 5 (15:50) 0.1 0 0.1 0 0
04-10-2019 23.5 (18:20) 18.2 (00:00) 20.9 6.39 (18:10) 4.17 (20:50) 0 0 0 0 0
03-10-2019 23.2 (17:20) 18.1 (00:00) 20.7 6.11 (15:50) 3.89 (15:50) 0 0 0 0 0
02-10-2019 23.3 (16:20) 19.1 (00:00) 21.2 10.56 (02:00) 7.22 (02:20) 0 0 0 0 0
01-10-2019 -- (--) -- (--) -- -- (--) -- (--) 0 0 0 0 0
30-09-2019 26.5 (15:40) 18 (00:00) 22.3 5.83 (19:30) 4.72 (19:20) 0 0 0 0 0
29-09-2019 24.9 (12:00) 20.3 (00:00) 22.6 8.89 (13:50) 5.28 (13:50) 0 0 0 0 0
28-09-2019 26 (17:40) 19.1 (00:00) 22.6 5 (15:20) 3.89 (16:40) 0 0 0 0 0
27-09-2019 24.9 (15:20) 20.2 (00:00) 22.6 7.78 (17:40) 3.89 (07:30) 0 0 0 0 0
26-09-2019 26.4 (18:10) 18.2 (00:00) 22.3 5.83 (17:40) 4.17 (16:40) 0 0 0 0 0
25-09-2019 24.3 (17:00) 20.9 (00:00) 22.6 7.78 (15:00) 6.39 (13:40) 0 0 0 0 0
24-09-2019 26.7 (14:50) 18.1 (00:00) 22.4 8.61 (22:00) 6.11 (21:30) 0 0 0 0 0
23-09-2019 26.2 (14:50) 18.6 (00:00) 22.4 9.44 (16:50) 6.67 (16:10) 0 0 0 0 0
22-09-2019 23.2 (17:00) 19.7 (00:00) 21.5 13.33 (08:00) 5.56 (12:30) 1.1 0 1.1 0 0

Gráficas

Temp. máximas Temp. mínimas Temp. medias Precipitaciones Rachas de viento máximas Velocidades máximas media en intervalos de 10 minutos

Datos horarios

Fecha y hora oficial Temperatura (ºC) Velocidad del viento (km/h) Dirección del viento Racha (km/h) Dirección de racha Precipitación (mm) Presión (hPa) Tendencia (hPa) Humedad (%)
2019-10-21 23:00:00 18.2 10 Noroeste 16 Noroeste 0 1015.5 0.1 53
2019-10-21 22:00:00 18.5 10 Noroeste 14 Noroeste 0 1015.5 0.4 53
2019-10-21 21:00:00 18.5 9 Oeste 19 Oeste 0 1015.6 0.4 58
2019-10-21 20:00:00 18.6 14 Noroeste 20 Oeste 0 1015.4 0 55
2019-10-21 19:00:00 19.2 14 Noroeste 22 Noroeste 0 1015.1 -0.6 56
2019-10-21 18:00:00 19.3 17 Noroeste 25 Noroeste 0 1015.2 -0.8 53
2019-10-21 17:00:00 19.5 17 Oeste 25 Noroeste 0 1015.4 -1.4 54
2019-10-21 16:00:00 19.7 14 Noroeste 21 Oeste 0 1015.7 -1.6 59
2019-10-21 15:00:00 19.7 11 Noroeste 19 Noroeste 0 1016 -1.5 64
2019-10-21 14:00:00 18.9 9 Noroeste 12 Norte 0 1016.8 -0.7 64
2019-10-21 13:00:00 18.4 8 Norte 11 Norte 0 1017.3 0.3 61
2019-10-21 12:00:00 18.5 4 Este 11 Este 0 1017.5 1 66
2019-10-21 11:00:00 16.6 7 Nordeste 10 Nordeste 0 1017.5 1.2 71
2019-10-21 10:00:00 14.9 6 Nordeste 9 Nordeste 0 1017 1 81
2019-10-21 09:00:00 14.2 5 Norte 7 Norte 0 1016.5 0.6 85
2019-10-21 08:00:00 13.4 5 Nordeste 10 Nordeste 0 1016.3 0.4 85
2019-10-21 07:00:00 14.2 9 Nordeste 14 Nordeste 0 1016 0.1 85
2019-10-21 06:00:00 14.6 11 Norte 15 Norte 0 1015.9 0.1 87
2019-10-21 05:00:00 14.9 5 Nordeste 8 Este 0 1015.9 0 79
2019-10-21 04:00:00 14.9 6 Nordeste 13 Este 0 1015.9 0 79
2019-10-21 03:00:00 15.8 8 Este 14 Este 0 1015.8 -0.4 76
2019-10-21 02:00:00 16.5 10 Este 15 Este 0 1015.9 -0.2 78
2019-10-21 01:00:00 17.9 0 Calma 10 Oeste 0 1015.9 0 66
2019-10-21 00:00:00 18.6 8 Oeste 17 Noroeste 0 1016.2 0.7 63
2019-10-20 23:00:00 18.4 8 Oeste 16 Oeste 0 1016.1 0.7 69
2019-10-20 22:00:00 18.3 8 Oeste 20 Oeste 0 1015.9 1 63
2019-10-20 21:00:00 18.4 11 Oeste 22 Oeste 0 1015.5 0.5 61
2019-10-20 20:00:00 18.4 13 Oeste 21 Oeste 0 1015.4 0.4 58
2019-10-20 19:00:00 19.2 10 Oeste 21 Sudoeste 0 1014.9 0.1 60
2019-10-20 18:00:00 19.8 10 Oeste 21 Oeste 0 1015 0.4 58
2019-10-20 17:00:00 20 12 Oeste 24 Noroeste 0 1015 -0.2 57
2019-10-20 16:00:00 19.2 13 Oeste 23 Noroeste 0 1014.8 -0.2 59
2019-10-20 15:00:00 19.2 14 Oeste 22 Oeste 0 1014.6 -0.3 61
2019-10-20 14:00:00 18.6 14 Noroeste 23 Noroeste 0 1015.2 0.9 65
2019-10-20 13:00:00 18.4 13 Oeste 22 Noroeste 0 1015 1.3 66
2019-10-20 12:00:00 17.7 15 Noroeste 23 Noroeste 0 1014.9 2.3 68
2019-10-20 11:00:00 17.5 12 Noroeste 28 Noroeste 0 1014.3 2.1 69
2019-10-20 10:00:00 17.3 15 Noroeste 26 Norte 0 1013.7 1.8 74
2019-10-20 09:00:00 17.4 13 Noroeste 24 Noroeste 0 1012.6 1.5 73
2019-10-20 08:00:00 17.6 15 Noroeste 26 Noroeste 0 1012.2 1.4 66
2019-10-20 07:00:00 17.7 13 Noroeste 26 Noroeste 0 1011.9 0.6 67
2019-10-20 06:00:00 17.8 14 Noroeste 24 Noroeste 0 1011.1 -0.6 72
2019-10-20 05:00:00 17.2 5 Oeste 14 Oeste 0 1010.8 0.1 81
2019-10-20 04:00:00 17 4 Oeste 25 Noroeste 0.9 1011.3 0 80
2019-10-20 03:00:00 17.7 14 Noroeste 28 Noroeste 0.3 1011.7 1.2 82
2019-10-20 02:00:00 18.2 17 Noroeste 38 Noroeste 0 1010.7 0.7 77
2019-10-20 01:00:00 18.9 24 Noroeste 35 Noroeste 0 1011.3 2.2 75
2019-10-20 00:00:00 18.8 13 Noroeste 29 Noroeste 0 1010.5 1 79
2019-10-19 23:00:00 19 10 Oeste 57 Sudoeste 1.2 1010 0.7 92
2019-10-19 22:00:00 19.7 15 Sudoeste 43 Sudoeste 2.6 1009.1 -0.4 91
2019-10-19 21:00:00 20.4 24 Sudoeste 41 Oeste 1.2 1009.5 -0.1 88
2019-10-19 20:00:00 21.4 20 Sur 36 Sur 0 1009.3 -1 87
2019-10-19 19:00:00 21.7 21 Sur 33 Sur 0 1009.5 -1.3 85
2019-10-19 18:00:00 22.5 22 Sur 32 Sur 0 1009.6 -2.1 80
2019-10-19 17:00:00 22.5 18 Sudoeste 31 Sur 0 1010.3 -2.4 77
2019-10-19 16:00:00 23 15 Sur 23 Sudoeste 0 1010.8 -2.4 82
2019-10-19 15:00:00 21.8 10 Sur 22 Sur 0.1 1011.7 -1.6 85
2019-10-19 14:00:00 20.4 10 Sudoeste 24 Sur 1.7 1012.7 -0.9 90
2019-10-19 13:00:00 21.5 14 Sur 23 Sudoeste 0 1013.2 -0.6 78
2019-10-19 12:00:00 21.5 13 Sur 22 Sur 0 1013.3 -0.1 76
2019-10-19 11:00:00 21.1 9 Sur 15 Sur 0 1013.6 0.2 77
2019-10-19 10:00:00 19.4 8 Sudeste 12 Sur 0 1013.8 -0.1 77
2019-10-19 09:00:00 19 9 Sudeste 12 Sudeste 0 1013.4 -0.4 80
2019-10-19 08:00:00 19 0 Calma 5 Noroeste 0 1013.4 -0.5 71
2019-10-19 07:00:00 19.2 4 Oeste 11 Noroeste 0 1013.9 -0.7 72
2019-10-19 06:00:00 19.3 8 Noroeste 13 Noroeste 0 1013.8 -1.2 71
2019-10-19 05:00:00 18.7 2 Oeste 12 Noroeste 0 1013.9 -1.7 69
2019-10-19 04:00:00 19.6 7 Noroeste 14 Noroeste 0 1014.6 -1.6 76
2019-10-19 03:00:00 19.5 7 Oeste 15 Oeste 0 1015 -1.4 82
2019-10-19 02:00:00 19.7 9 Oeste 16 Oeste 0 1015.6 -1.2 82
2019-10-19 01:00:00 20.1 7 Oeste 16 Oeste 0 1016.2 -0.4 84
2019-10-19 00:00:00 20.5 9 Oeste 16 Oeste 0 1016.4 -0.2 85
2019-10-18 23:00:00 20.7 7 Oeste 12 Sudoeste 0 1016.8 0.4 88
2019-10-18 22:00:00 20.9 6 Sudoeste 11 Sudoeste 0 1016.6 0 88
2019-10-18 21:00:00 20.9 6 Sudoeste 15 Oeste 0 1016.6 -0.3 87
2019-10-18 20:00:00 21.3 6 Oeste 16 Sudoeste 0 1016.4 -1 84
2019-10-18 19:00:00 22.6 8 Sudoeste 19 Oeste 0 1016.6 -1.3 78
2019-10-18 18:00:00 23 9 Oeste 19 Oeste 0 1016.9 -1.5 76
2019-10-18 17:00:00 23.3 11 Oeste 21 Oeste 0 1017.4 -1.9 75
2019-10-18 16:00:00 23.1 12 Oeste 21 Oeste 0 1017.9 -2 75
2019-10-18 15:00:00 23.7 12 Oeste 17 Oeste 0 1018.4 -1.8 72
2019-10-18 14:00:00 23.8 8 Sudoeste 14 Oeste 0 1019.3 -0.8 69
2019-10-18 13:00:00 22.2 0 Calma 9 Norte 0 1019.9 0.4 73
2019-10-18 12:00:00 20.4 5 Norte 9 Norte 0 1020.2 1.4 85
2019-10-18 11:00:00 19.7 3 Norte 6 Norte 0 1020.1 1.5 87
2019-10-18 10:00:00 19 0 Calma 4 Nordeste 0 1019.5 0.8 89
2019-10-18 09:00:00 18.2 4 Este 6 Este 0 1018.8 0.2 92
2019-10-18 08:00:00 18 3 Este 5 Este 0 1018.6 -0.1 92
2019-10-18 07:00:00 18.2 2 Nordeste 4 Este 0 1018.7 -0.4 91
2019-10-18 06:00:00 18.6 4 Este 6 Este 0 1018.6 -1 91
2019-10-18 05:00:00 18.7 3 Sudeste 7 Este 0 1018.7 -0.9 90
2019-10-18 04:00:00 18.8 0 Calma 7 Noroeste 0 1019.1 -1 89
2019-10-18 03:00:00 19.6 0 Calma 7 Oeste 0 1019.6 -0.7 85
2019-10-18 02:00:00 19.9 3 Noroeste 6 Noroeste 0 1019.6 -0.4 87
2019-10-18 01:00:00 19.9 3 Noroeste 17 Oeste 0 1020.1 0 86
2019-10-18 00:00:00 20.1 6 Oeste 13 Noroeste 0 1020.3 0.7 85
2019-10-17 23:00:00 20.1 8 Noroeste 19 Noroeste 0 1020 0.7 83
2019-10-17 22:00:00 20.3 15 Noroeste 22 Noroeste 0 1020.1 1 79
2019-10-17 21:00:00 20.2 15 Oeste 23 Noroeste 0 1019.6 0.4 76
2019-10-17 20:00:00 20.3 14 Oeste 22 Oeste 0 1019.3 -0.2 75
2019-10-17 19:00:00 20.6 14 Oeste 22 Oeste 0 1019.1 -0.7 74
2019-10-17 18:00:00 21 15 Oeste 26 Oeste 0 1019.2 -1.2 72
2019-10-17 17:00:00 21.3 17 Oeste 26 Oeste 0 1019.5 -1.7 64
2019-10-17 16:00:00 21.9 15 Oeste 25 Sudoeste 0 1019.8 -1.6 69
2019-10-17 15:00:00 21.1 14 Oeste 22 Oeste 0 1020.4 -0.9 67
2019-10-17 14:00:00 21.5 10 Oeste 17 Oeste 0 1021.2 -0.1 61
2019-10-17 13:00:00 20.3 7 Oeste 14 Sudoeste 0 1021.4 0.6 70
2019-10-17 12:00:00 20 4 Sudeste 7 Sudeste 0 1021.3 1.4 72
2019-10-17 11:00:00 18.5 3 Norte 5 Nordeste 0 1021.3 1.7 77
2019-10-17 10:00:00 17.5 5 Nordeste 6 Este 0 1020.8 1.5 80
2019-10-17 09:00:00 16.3 4 Este 7 Este 0 1019.9 0.9 86
2019-10-17 08:00:00 16.6 4 Este 8 Este 0 1019.6 0.7 86
2019-10-17 07:00:00 16 0 Calma 4 Sur 0 1019.3 0.1 83
2019-10-17 06:00:00 16.6 2 Sur 6 Sudeste 0 1019 -0.3 79
2019-10-17 05:00:00 16.8 2 Este 8 Este 0 1018.9 -0.4 82
2019-10-17 04:00:00 17.3 3 Este 9 Sudeste 0 1019.2 -0.6 78
2019-10-17 03:00:00 17.6 6 Sudeste 9 Sudeste 0 1019.3 -0.4 77
2019-10-17 02:00:00 17.7 4 Este 8 Este 0 1019.3 -0.4 76
2019-10-17 01:00:00 18.7 4 Nordeste 22 Noroeste 0 1019.8 0.6 73
2019-10-17 00:00:00 19.3 9 Noroeste 20 Norte 0 1019.7 0.8 69
2019-10-16 23:00:00 19.4 14 Noroeste 23 Noroeste 0 1019.7 1.3 68
2019-10-16 22:00:00 19.7 15 Noroeste 24 Norte 0 1019.2 0.8 62
2019-10-16 21:00:00 19.8 12 Noroeste 22 Noroeste 0 1018.9 0.6 62
2019-10-16 20:00:00 20.1 14 Noroeste 25 Noroeste 0 1018.4 -0.2 57
2019-10-16 19:00:00 20.5 17 Oeste 27 Noroeste 0 1018.4 -0.9 56
2019-10-16 18:00:00 20.6 18 Oeste 27 Oeste 0 1018.3 -1.6 56
2019-10-16 17:00:00 21 15 Oeste 24 Noroeste 0 1018.6 -2.3 57
2019-10-16 16:00:00 20.6 16 Oeste 22 Oeste 0 1019.3 -2.1 61
2019-10-16 15:00:00 20.6 14 Oeste 19 Oeste 0 1019.9 -1.8 60
2019-10-16 14:00:00 20.1 9 Oeste 15 Oeste 0 1020.9 -0.7 56
2019-10-16 13:00:00 19 2 Noroeste 10 Noroeste 0 1021.4 0.5 52
2019-10-16 12:00:00 16.6 4 Noroeste 10 Norte 0 1021.7 1.2 68
2019-10-16 11:00:00 15.4 3 Norte 8 Nordeste 0 1021.6 1.4 70
2019-10-16 10:00:00 14.3 6 Nordeste 9 Nordeste 0 1020.9 1 75
2019-10-16 09:00:00 14 7 Nordeste 10 Nordeste 0 1020.5 0.6 78
2019-10-16 08:00:00 14.6 6 Norte 9 Este 0 1020.2 0 78
2019-10-16 07:00:00 14.5 6 Nordeste 11 Nordeste 0 1019.9 -0.6 76
2019-10-16 06:00:00 15.4 8 Nordeste 12 Nordeste 0 1019.9 -1.2 75
2019-10-16 05:00:00 15.4 6 Nordeste 10 Este 0 1020.2 -1.1 78
2019-10-16 04:00:00 16.2 4 Este 10 Este 0 1020.5 -1 77
2019-10-16 03:00:00 17.8 8 Este 18 Noroeste 0 1021.1 -0.6 70
2019-10-16 02:00:00 18.7 12 Noroeste 21 Noroeste 0 1021.3 -0.2 71
2019-10-16 01:00:00 18.8 14 Noroeste 25 Noroeste 0 1021.5 0.5 65
2019-10-16 00:00:00 18.9 14 Noroeste 26 Noroeste 0 1021.7 0.8 62
2019-10-15 23:00:00 19 15 Noroeste 24 Noroeste 0 1021.5 0.9 62
2019-10-15 22:00:00 19.1 14 Noroeste 24 Noroeste 0 1021 0.6 61
2019-10-15 21:00:00 19.1 15 Noroeste 23 Noroeste 0 1020.9 0.3 58
2019-10-15 20:00:00 19.1 13 Noroeste 25 Norte 0 1020.6 -0.1 56
2019-10-15 19:00:00 19.6 14 Noroeste 25 Noroeste 0 1020.4 -0.6 56
2019-10-15 18:00:00 19.7 18 Noroeste 25 Noroeste 0 1020.6 -1.1 57
2019-10-15 17:00:00 19.5 17 Oeste 24 Oeste 0 1020.7 -1.6 56
2019-10-15 16:00:00 19.6 14 Oeste 22 Oeste 0 1021 -1.8 51
2019-10-15 15:00:00 19.8 6 Noroeste 15 Noroeste 0 1021.7 -1.3 45
2019-10-15 14:00:00 18.8 8 Noroeste 18 Norte 0 1022.3 -0.7 52
2019-10-15 13:00:00 18.1 13 Norte 21 Norte 0 1022.8 0.5 52
2019-10-15 12:00:00 17.4 14 Norte 21 Norte 0 1023 1.4 65
2019-10-15 11:00:00 16 16 Norte 22 Nordeste 0 1023 1.7 70
2019-10-15 10:00:00 14.8 13 Norte 18 Norte 0 1022.3 1.3 77
2019-10-15 09:00:00 14.6 13 Norte 19 Norte 0 1021.6 0.5 80
2019-10-15 08:00:00 15 11 Norte 15 Norte 0 1021.3 0.4 79
2019-10-15 07:00:00 15.4 9 Norte 14 Norte 0 1021 0 81
2019-10-15 06:00:00 15.6 12 Norte 21 Norte 0 1021.1 0.1 79
2019-10-15 05:00:00 17.2 19 Norte 25 Norte 0 1020.9 -0.1 76
2019-10-15 04:00:00 17.8 19 Norte 26 Norte 0 1021 0 71
2019-10-15 03:00:00 18.8 21 Norte 28 Noroeste 0 1021 0.1 71
2019-10-15 02:00:00 19.1 17 Noroeste 27 Noroeste 0 1021 0.5 65
2019-10-15 01:00:00 19.4 14 Noroeste 24 Noroeste 0 1021 1.1 66
2019-10-15 00:00:00 19.4 13 Noroeste 21 Noroeste 0 1020.9 1.4 74
2019-10-14 23:00:00 19.7 12 Noroeste 26 Noroeste 0 1020.5 1.6 74
2019-10-14 22:00:00 19.9 16 Noroeste 31 Oeste 0 1019.9 1.2 77
2019-10-14 21:00:00 20.4 18 Oeste 33 Oeste 0 1019.5 1 77
2019-10-14 20:00:00 20.9 15 Oeste 31 Oeste 0 1018.9 0.7 70
2019-10-14 19:00:00 21.6 19 Oeste 31 Oeste 0 1018.7 0.6 63
2019-10-14 18:00:00 22 20 Oeste 35 Sudoeste 0 1018.5 0.5 62
2019-10-14 17:00:00 22.4 18 Oeste 33 Oeste 0 1018.2 0 59
2019-10-14 16:00:00 21.7 18 Oeste 29 Oeste 0 1018.1 0 65
2019-10-14 15:00:00 21.5 18 Oeste 27 Oeste 0 1018 0.1 68
2019-10-14 14:00:00 21 13 Oeste 25 Oeste 0 1018.2 0.8 79
2019-10-14 13:00:00 20.4 17 Oeste 27 Oeste 0 1018.1 1.6 82
2019-10-14 12:00:00 21.5 8 Oeste 23 Oeste 0 1017.9 2.4 75
2019-10-14 11:00:00 20.5 13 Oeste 28 Sudoeste 0 1017.4 2.4 76
2019-10-14 10:00:00 20.3 17 Oeste 32 Oeste 0 1016.5 1.5 78
2019-10-14 09:00:00 20.1 18 Oeste 29 Oeste 0 1015.5 1.5 82
2019-10-14 08:00:00 20 12 Oeste 28 Sudoeste 0.1 1015 0.7 87
2019-10-14 07:00:00 19.5 16 Sudoeste 33 Sudoeste 1.8 1015 1.4 89
2019-10-14 06:00:00 21.1 13 Sur 30 Sudoeste 0 1014 0.5 85
2019-10-14 05:00:00 21.2 16 Sudoeste 32 Sudoeste 0 1014.3 1.1 83
2019-10-14 04:00:00 20.8 14 Sudoeste 28 Sur 0 1013.6 0.3 89
2019-10-14 03:00:00 20.9 4 Sur 13 Oeste 0 1013.5 -0.1 89
2019-10-14 02:00:00 20.6 4 Oeste 8 Oeste 0 1013.2 0.7 89
2019-10-14 01:00:00 20.7 3 Sudoeste 16 Oeste 0 1013.3 0.6 90
2019-10-14 00:00:00 20.9 9 Oeste 19 Oeste 0 1013.6 1.7 85
2019-10-13 23:00:00 21.6 0 Calma 20 Oeste 0 1012.5 0.7 83
2019-10-13 22:00:00 21.8 8 Oeste 16 Oeste 0 1012.7 1.1 80
2019-10-13 21:00:00 22 6 Noroeste 18 Noroeste 0 1011.9 -0.1 80
2019-10-13 20:00:00 22.5 11 Noroeste 17 Noroeste 0 1011.8 -1 78
2019-10-13 19:00:00 22.4 8 Norte 21 Noroeste 0 1011.6 -1.5 82
2019-10-13 18:00:00 22.7 12 Oeste 20 Oeste 0 1012 -1.7 78
2019-10-13 17:00:00 23 12 Oeste 21 Oeste 0 1012.8 -1.6 76
2019-10-13 16:00:00 23 14 Oeste 29 Oeste 0 1013.1 -2.3 75
2019-10-13 15:00:00 23.9 16 Oeste 24 Oeste 0 1013.7 -2.4 70
2019-10-13 14:00:00 24.3 10 Oeste 18 Oeste 0 1014.4 -1.7 71
2019-10-13 13:00:00 24.6 3 Sur 5 Sudoeste 0 1015.4 -0.3 67
2019-10-13 12:00:00 23.4 0 Calma 10 Este 0 1016.1 0.7 74
2019-10-13 11:00:00 21.6 6 Este 10 Este 0 1016.1 1.2 83
2019-10-13 10:00:00 20.7 5 Sudeste 8 Sudeste 0 1015.7 0.3 89
2019-10-13 09:00:00 20.5 4 Sur 12 Sur 0 1015.4 0.4 91
2019-10-13 08:00:00 20.5 8 Sur 14 Sur 0 1014.9 -0.1 92
2019-10-13 07:00:00 20.6 8 Sur 29 Sudeste 0 1015.4 -0.3 89
2019-10-13 06:00:00 20.7 8 Sudeste 14 Sudeste 0 1015 -0.8 88
2019-10-13 05:00:00 20.7 8 Sudeste 12 Sur 0 1015 -1.1 88
2019-10-13 04:00:00 21.1 4 Sur 8 Sur 0 1015.7 -0.7 87
2019-10-13 03:00:00 21 0 Calma 5 Oeste 0 1015.8 -0.5 86
2019-10-13 02:00:00 21 2 Sur 8 Oeste 0 1016.1 -0.1 86
2019-10-13 01:00:00 20.8 4 Oeste 9 Oeste 0 1016.4 0.2 86
2019-10-13 00:00:00 20.7 6 Oeste 14 Oeste 0 1016.3 0.6 87
2019-10-12 23:00:00 20.9 6 Oeste 16 Oeste 0 1016.2 0.9 87
2019-10-12 22:00:00 21.1 8 Oeste 20 Sudoeste 0 1016.2 1.4 89
2019-10-12 21:00:00 21.3 11 Sudoeste 19 Sur 0 1015.7 1 90
2019-10-12 20:00:00 21.7 12 Sudoeste 22 Sur 0 1015.3 0.9 88
2019-10-12 19:00:00 22.3 14 Sudoeste 28 Sur 0 1014.8 0.4 85
2019-10-12 18:00:00 22.8 19 Sur 39 Sur 0 1014.7 0 81
2019-10-12 17:00:00 23.3 23 Sur 41 Sur 0 1014.4 -1 79
2019-10-12 16:00:00 24.4 27 Sur 41 Sur 0 1014.4 -1.1 75
2019-10-12 15:00:00 25.3 19 Sur 31 Sur 0 1014.7 -0.9 68
2019-10-12 14:00:00 25.3 16 Sur 34 Sur 0 1015.4 -0.1 69
2019-10-12 13:00:00 25.6 21 Sur 35 Sur 0 1015.5 1.2 68
2019-10-12 12:00:00 25.1 25 Sudeste 33 Sudeste 0 1015.6 1.5 66
2019-10-12 11:00:00 23.8 21 Sudeste 33 Sudeste 0 1015.5 1.5 73
2019-10-12 10:00:00 23.1 21 Sudeste 30 Sudeste 0 1014.3 0.6 75
2019-10-12 09:00:00 22.4 23 Sudeste 33 Sudeste 0 1014.1 0 76
2019-10-12 08:00:00 22.6 25 Sudeste 34 Sudeste 0 1014 -0.2 77
2019-10-12 07:00:00 22.6 24 Sudeste 35 Sudeste 0 1013.7 -0.8 76
2019-10-12 06:00:00 22.5 15 Sudeste 27 Sudeste 0 1014.1 -1.3 76
2019-10-12 05:00:00 22.6 18 Sudeste 25 Sudeste 0 1014.2 -1.3 74
2019-10-12 04:00:00 22.8 21 Sudeste 27 Sudeste 0 1014.5 -1.3 74
2019-10-12 03:00:00 22.4 10 Sudeste 32 Sudeste 0 1015.4 -1.5 78
2019-10-12 02:00:00 22.8 26 Este 37 Sudeste 0 1015.5 -0.9 76
2019-10-12 01:00:00 22.8 21 Este 35 Sudeste 0 1015.8 -0.7 77
2019-10-12 00:00:00 22.7 19 Sudeste 32 Este 0 1016.9 0.9 78
2019-10-11 23:00:00 23 16 Este 30 Sudeste 0 1016.4 0.4 76
2019-10-11 22:00:00 23.1 17 Sudeste 28 Este 0 1016.5 0.7 75
2019-10-11 21:00:00 23.5 22 Sudeste 30 Sudeste 0 1016 0.2 71
2019-10-11 20:00:00 24.1 18 Sudeste 36 Sudeste 0 1016 0.5 70
2019-10-11 19:00:00 25.1 23 Sudeste 36 Sudeste 0 1015.8 0.1 65
2019-10-11 18:00:00 25.2 15 Sudeste 40 Sudeste 0 1015.8 -1.2 64
2019-10-11 17:00:00 25.6 34 Sudeste 42 Sudeste 0 1015.5 -1.9 61
2019-10-11 16:00:00 25.7 30 Este 40 Sudeste 0 1015.7 -2.1 62
2019-10-11 15:00:00 26 24 Sudeste 35 Sudeste 0 1017 0.1 61
2019-10-11 14:00:00 25.5 26 Sudeste 35 Sudeste 0 1017.4 -0.6 62
2019-10-11 13:00:00 24.8 26 Sudeste 49 Sudeste 0 1017.8 0.1 65
2019-10-11 12:00:00 24.1 34 Este 46 Este 0 1016.9 0.1 66
2019-10-11 11:00:00 23.2 26 Sudeste 35 Sudeste 0 1018 1.3 73
2019-10-11 10:00:00 22.7 20 Sudeste 31 Sudeste 0 1017.7 0.9 74
2019-10-11 09:00:00 22.3 19 Este 32 Este 0 1016.8 0.4 75
2019-10-11 08:00:00 22.4 22 Este 32 Este 0 1016.7 0.5 73
2019-10-11 07:00:00 22.3 19 Este 33 Sudeste 0 1016.8 1.2 71
2019-10-11 06:00:00 22.5 21 Este 38 Sudeste 0 1016.4 0.8 70
2019-10-11 05:00:00 22.6 12 Este 42 Este 0 1016.2 0.1 68
2019-10-11 04:00:00 22.8 33 Este 53 Este 0 1015.6 -1 67
2019-10-11 03:00:00 22.9 38 Sudeste 54 Este 0 1015.6 -1.2 67
2019-10-11 02:00:00 23 25 Este 43 Este 0 1016.1 -0.4 65
2019-10-11 01:00:00 23.1 25 Este 42 Este 0 1016.6 0.3 66
2019-10-11 00:00:00 23 23 Este 45 Este 0 1016.8 0.9 67
2019-10-10 23:00:00 23 29 Este 42 Este 0 1016.5 1.1 70
2019-10-10 22:00:00 23.1 24 Este 44 Este 0 1016.3 0.8 72
2019-10-10 21:00:00 23.4 32 Este 46 Este 0 1015.9 0.5 70
2019-10-10 20:00:00 24.2 27 Sudeste 46 Este 0 1015.4 0.2 64
2019-10-10 19:00:00 25.3 35 Este 51 Este 0 1015.5 -0.2 58
2019-10-10 18:00:00 26.6 34 Este 43 Este 0 1015.4 -0.7 53
2019-10-10 17:00:00 26.8 34 Sudeste 47 Sudeste 0 1015.2 -1.4 55
2019-10-10 16:00:00 26.8 30 Este 45 Sudeste 0 1015.7 -1.2 55
2019-10-10 15:00:00 26.6 35 Sudeste 46 Este 0 1016.1 -1.1 57
2019-10-10 14:00:00 26.6 34 Este 45 Este 0 1016.6 -0.7 55
2019-10-10 13:00:00 25.7 35 Este 46 Este 0 1016.9 -0.1 58
2019-10-10 12:00:00 25 33 Este 44 Este 0 1017.2 1.3 60
2019-10-10 11:00:00 24 32 Este 44 Este 0 1017.3 2.1 64
2019-10-10 10:00:00 23.1 28 Este 46 Sudeste 0 1017 1.9 65
2019-10-10 09:00:00 22.4 23 Este 35 Este 0 1015.9 1.1 56
2019-10-10 08:00:00 22.1 24 Este 36 Sudeste 0 1015.2 0.5 55
2019-10-10 07:00:00 22.4 14 Sudeste 21 Este 0 1015.1 0.3 52
2019-10-10 06:00:00 22 18 Este 35 Este 0 1014.8 -0.5 61
2019-10-10 05:00:00 22.8 24 Este 33 Este 0 1014.7 -0.9 61
2019-10-10 04:00:00 21.3 9 Este 14 Este 0 1014.8 -1 69
2019-10-10 03:00:00 21 2 Nordeste 8 Sudeste 0 1015.3 -0.4 71
2019-10-10 02:00:00 21.1 3 Este 5 Nordeste 0 1015.6 0.1 75
2019-10-10 01:00:00 21.6 2 Sudeste 7 Sur 0 1015.8 0.5 76
2019-10-10 00:00:00 21.8 5 Sudeste 7 Sudeste 0 1015.7 0.9 83
2019-10-09 23:00:00 21.8 3 Sur 8 Sur 0 1015.5 0.8 76
2019-10-09 22:00:00 21.7 4 Sur 6 Sur 0 1015.3 0.7 77
2019-10-09 21:00:00 21.9 2 Sur 9 Sudoeste 0 1014.8 0.3 80
2019-10-09 20:00:00 22.7 6 Sudoeste 15 Oeste 0 1014.7 -0.2 69
2019-10-09 19:00:00 23.9 9 Oeste 16 Oeste 0 1014.6 -0.1 66
2019-10-09 18:00:00 23.9 10 Oeste 23 Oeste 0 1014.5 -0.5 67
2019-10-09 17:00:00 24.5 15 Oeste 25 Oeste 0 1014.9 -0.8 67
2019-10-09 16:00:00 24.9 13 Oeste 21 Oeste 0 1014.7 -1.7 67
2019-10-09 15:00:00 25.7 12 Noroeste 15 Noroeste 0 1015 -1.6 62
2019-10-09 14:00:00 23.9 14 Noroeste 16 Noroeste 0 1015.7 -1 65
2019-10-09 13:00:00 24 12 Noroeste 15 Noroeste 0 1016.4 0.1 63
2019-10-09 12:00:00 22.3 8 Noroeste 12 Norte 0 1016.6 0.8 75
2019-10-09 11:00:00 21.7 10 Norte 13 Norte 0 1016.7 1.3 66
2019-10-09 10:00:00 20.5 7 Norte 11 Norte 0 1016.3 1.4 72
2019-10-09 09:00:00 20.8 6 Norte 29 Nordeste 0 1015.8 1 62
2019-10-09 08:00:00 20.3 11 Norte 14 Norte 0 1015.4 0.5 65
2019-10-09 07:00:00 20.6 8 Norte 12 Nordeste 0 1014.9 -0.7 61
2019-10-09 06:00:00 21.1 6 Nordeste 14 Nordeste 0 1014.8 -1.1 56
2019-10-09 05:00:00 20.9 5 Nordeste 15 Este 0 1014.9 -0.8 79
2019-10-09 04:00:00 21.4 6 Nordeste 13 Nordeste 0 1015.6 -0.3 70
2019-10-09 03:00:00 22 7 Nordeste 21 Este 0 1015.9 -0.4 69
2019-10-09 02:00:00 22.8 9 Este 26 Este 0 1015.7 0.1 65
2019-10-09 01:00:00 23.1 14 Este 23 Este 0 1015.9 0.4 65
2019-10-09 00:00:00 23.3 5 Nordeste 34 Este 0 1016.3 1.3 64
2019-10-08 23:00:00 23.5 27 Este 39 Este 0 1015.6 0.8 65
2019-10-08 22:00:00 24 25 Este 43 Este 0 1015.5 0.8 61
2019-10-08 21:00:00 24.3 34 Este 51 Este 0 1015 -0.1 60
2019-10-08 20:00:00 25.3 28 Este 48 Este 0 1014.8 -0.1 54
2019-10-08 19:00:00 26.9 33 Sudeste 41 Este 0 1014.7 -0.7 48
2019-10-08 18:00:00 27.5 29 Sudeste 40 Sudeste 0 1015.1 -0.7 50
2019-10-08 17:00:00 27.8 31 Sudeste 43 Sudeste 0 1014.9 -1.5 48
2019-10-08 16:00:00 28.1 31 Sudeste 40 Este 0 1015.4 -1.7 48
2019-10-08 15:00:00 27.6 29 Sudeste 45 Este 0 1015.8 -1.8 55
2019-10-08 14:00:00 27 36 Este 46 Este 0 1016.4 -0.9 54
2019-10-08 13:00:00 26.4 33 Este 41 Este 0 1017.1 0.2 57
2019-10-08 12:00:00 25.7 26 Este 40 Este 0 1017.6 1.5 60
2019-10-08 11:00:00 25 26 Este 34 Este 0 1017.3 1.6 62
2019-10-08 10:00:00 24 8 Este 19 Este 0 1016.9 1.5 61
2019-10-08 09:00:00 22 6 Sudeste 16 Sudeste 0 1016.1 1.2 71
2019-10-08 08:00:00 21.6 12 Sudeste 24 Sudeste 0 1015.7 0.8 70
2019-10-08 07:00:00 21.4 9 Sudeste 23 Sudeste 0 1015.4 0.5 69
2019-10-08 06:00:00 20.9 13 Sudeste 21 Este 0 1014.9 -0.4 69
2019-10-08 05:00:00 20.4 12 Este 22 Este 0 1014.9 -0.5 83
2019-10-08 04:00:00 20.4 5 Sudoeste 8 Sudoeste 0 1014.9 -0.8 77
2019-10-08 03:00:00 20.5 4 Sudoeste 8 Sudoeste 0 1015.3 -0.7 88
2019-10-08 02:00:00 21.1 3 Sur 6 Este 0 1015.4 -0.8 85
2019-10-08 01:00:00 21.4 3 Este 5 Este 0 1015.7 0.1 82
2019-10-08 00:00:00 21.6 2 Sudeste 7 Este 0 1016 0.7 75
2019-10-07 23:00:00 22.3 5 Este 22 Noroeste 0 1016.2 0.8 70
2019-10-07 22:00:00 22.8 19 Noroeste 26 Noroeste 0 1015.6 0.1 70
2019-10-07 21:00:00 23.6 13 Noroeste 18 Noroeste 0 1015.3 -0.4 55
2019-10-07 20:00:00 24 5 Oeste -- -- -- 1015.4 -0.4 57
2019-10-07 19:00:00 24.5 10 Oeste 17 Oeste 0 1015.5 -0.5 55
2019-10-07 18:00:00 24.8 11 Oeste 19 Oeste 0 1015.7 -1.1 62
2019-10-07 17:00:00 24 15 Oeste 22 Oeste 0 1015.8 -1.7 68
2019-10-07 16:00:00 25.2 13 Oeste 19 Oeste 0 1016 -1.8 69
2019-10-07 15:00:00 25 11 Sudoeste 15 Oeste 0 1016.8 -1.2 70
2019-10-07 14:00:00 24.3 8 Sur 12 Sur 0 1017.5 -0.5 72
2019-10-07 13:00:00 24.1 4 Sur 8 Sur 0 1017.8 0.2 67
2019-10-07 12:00:00 21.4 0 Calma 6 Norte 0 1018 1 76
2019-10-07 11:00:00 20.8 3 Nordeste 6 Nordeste 0 1018 1.4 78
2019-10-07 10:00:00 20.3 4 Este 5 Este 0 1017.6 1.7 80
2019-10-07 09:00:00 18.3 0 Calma 4 Sudeste 0 1017 1 89
2019-10-07 08:00:00 17.8 4 Este 7 Este 0 1016.6 0.3 87
2019-10-07 07:00:00 17.6 0 Calma 4 Norte 0 1015.9 -0.7 87
2019-10-07 06:00:00 18 2 Nordeste 7 Este 0 1016 -1.5 85
2019-10-07 05:00:00 18.6 4 Nordeste 6 Este 0 1016.3 -1.5 85
2019-10-07 04:00:00 19.1 0 Calma 4 Este 0 1016.6 -1.8 91
2019-10-07 03:00:00 19.5 0 Calma 5 Nordeste 0 1017.5 -1 89
2019-10-07 02:00:00 19.5 2 Nordeste 9 Este 0 1017.8 -0.7 89
2019-10-07 01:00:00 20.3 3 Nordeste 6 Este 0 1018.4 0.3 88
2019-10-07 00:00:00 20.7 6 Noroeste 13 Noroeste 0 1018.5 0.6 87
2019-10-06 23:00:00 20.7 6 Noroeste 19 Noroeste 0 1018.5 1.1 88
2019-10-06 22:00:00 20.8 12 Noroeste 18 Noroeste 0 1018.1 0.5 87
2019-10-06 21:00:00 21.1 10 Noroeste 19 Noroeste 0 1017.9 0 79
2019-10-06 20:00:00 21.6 12 Oeste 24 Noroeste 0 1017.4 -0.7 69
2019-10-06 19:00:00 21.6 17 Oeste 24 Noroeste 0 1017.6 -0.9 77
2019-10-06 18:00:00 22.1 16 Oeste 24 Oeste 0 1017.9 -1 76
2019-10-06 17:00:00 23.4 13 Oeste 23 Oeste 0 1018.1 -1.3 68
2019-10-06 16:00:00 24.2 13 Oeste 21 Oeste 0 1018.5 -1.5 63
2019-10-06 15:00:00 23.3 9 Sudoeste 15 Sudoeste 0 1018.9 -1 66
2019-10-06 14:00:00 23.2 6 Sur 12 Sur 0 1019.4 0.3 68
2019-10-06 13:00:00 22.5 5 Sur 11 Sur 0 1020 1.2 70
2019-10-06 12:00:00 21.9 5 Sur 12 Sudeste 0 1019.9 1.7 73
2019-10-06 11:00:00 20.3 11 Sudeste 15 Sudeste 0 1019.1 1.6 85
2019-10-06 10:00:00 19 9 Sudeste 14 Sudeste 0 1018.8 1.6 89
2019-10-06 09:00:00 18.5 8 Sudeste 13 Sudeste 0 1018.2 1.3 92
2019-10-06 08:00:00 18.7 5 Sur 10 Sur 0 1017.5 0.4 90
2019-10-06 07:00:00 18.4 0 Calma 3 Oeste 0 1017.2 -0.2 83
2019-10-06 06:00:00 18.7 0 Calma 9 Noroeste 0 1016.9 -0.9 81
2019-10-06 05:00:00 19.7 6 Noroeste 10 Oeste 0 1017.1 -0.3 80
2019-10-06 04:00:00 20 5 Oeste 14 Oeste 0 1017.4 -0.3 81
2019-10-06 03:00:00 19.5 4 Sur 5 Sur 0 1017.8 0.3 91
2019-10-06 02:00:00 19.7 0 Calma 6 Noroeste 0 1017.4 -0.1 87
2019-10-06 01:00:00 19.6 0 Calma 8 Oeste 0 1017.7 0.6 87
2019-10-06 00:00:00 20.4 6 Noroeste 17 Noroeste 0 1017.5 0.9 86
2019-10-05 23:00:00 20.7 13 Noroeste 19 Noroeste 0 1017.5 1.3 85
2019-10-05 22:00:00 20.5 8 Oeste 16 Oeste 0 1017.1 1 86
2019-10-05 21:00:00 20.7 8 Oeste 19 Oeste 0 1016.6 0.5 83
2019-10-05 20:00:00 21 13 Oeste 23 Oeste 0 1016.2 -0.1 80
2019-10-05 19:00:00 21.9 17 Oeste 25 Oeste 0 1016.1 -0.3 71
2019-10-05 18:00:00 22.4 17 Oeste 27 Noroeste 0 1016.1 -0.7 67
2019-10-05 17:00:00 21.6 17 Oeste 25 Oeste 0 1016.3 -0.9 74
2019-10-05 16:00:00 21.2 17 Oeste 26 Oeste 0 1016.4 -1.1 79
2019-10-05 15:00:00 22.7 13 Oeste 22 Oeste 0 1016.8 -0.6 74
2019-10-05 14:00:00 22 12 Oeste 16 Oeste 0 1017.2 0.1 77
2019-10-05 13:00:00 21.9 6 Oeste 12 Oeste 0 1017.5 1 75
2019-10-05 12:00:00 20.6 5 Sudeste 8 Sudeste 0 1017.4 1.5 86
2019-10-05 11:00:00 20 3 Este 7 Este 0 1017.1 1.6 90
2019-10-05 10:00:00 19 0 Calma 6 Sur 0.1 1016.5 1.1 95
2019-10-05 09:00:00 18.2 3 Sur 7 Sudeste 0 1015.9 0.5 97
2019-10-05 08:00:00 18.3 4 Sur 8 Sudeste 0 1015.5 0.2 97
2019-10-05 07:00:00 19.2 3 Sur 9 Sudeste 0 1015.4 -0.2 96
2019-10-05 06:00:00 19.3 6 Sudeste 10 Sudeste 0 1015.4 -0.4 95
2019-10-05 05:00:00 19.6 3 Sur 6 Sur 0 1015.3 -1 94
2019-10-05 04:00:00 19.9 4 Sur 7 Sur 0 1015.6 -0.8 93
2019-10-05 03:00:00 20.5 4 Sur 6 Sur 0 1015.8 -0.9 93
2019-10-05 02:00:00 20.6 0 Calma 3 Oeste 0 1016.3 -0.6 91
2019-10-05 01:00:00 20.5 2 Oeste 6 Oeste 0 1016.4 -0.3 90
2019-10-05 00:00:00 20.8 3 Oeste 12 Oeste 0 1016.7 0.2 89
2019-10-04 23:00:00 21 7 Oeste 15 Oeste 0 1016.9 0.6 89
2019-10-04 22:00:00 21.2 8 Oeste 18 Noroeste 0 1016.7 0.6 87
2019-10-04 21:00:00 21.4 15 Oeste 22 Oeste 0 1016.5 0.2 87
2019-10-04 20:00:00 22.3 10 Oeste 17 Oeste 0 1016.3 -0.3 79
2019-10-04 19:00:00 23.2 12 Oeste 23 Oeste 0 1016.1 -0.8 75
2019-10-04 18:00:00 23.1 13 Oeste 21 Noroeste 0 1016.3 -1.3 76
2019-10-04 17:00:00 22.8 11 Oeste 18 Oeste 0 1016.6 -1.6 77
2019-10-04 16:00:00 23.1 10 Oeste 19 Oeste 0 1016.9 -1.6 71
2019-10-04 15:00:00 22.6 10 Oeste 15 Oeste 0 1017.6 -1.2 77
2019-10-04 14:00:00 21.3 8 Oeste 17 Oeste 0 1018.2 -0.3 81
2019-10-04 13:00:00 21.1 2 Norte 8 Sudeste 0 1018.5 0.2 82
2019-10-04 12:00:00 19.7 0 Calma 10 Este 0 1018.8 0.8 87
2019-10-04 11:00:00 19.8 5 Este 10 Este 0 1018.5 1 87
2019-10-04 10:00:00 19.1 7 Este 13 Este 0 1018.3 1 87
2019-10-04 09:00:00 18.5 2 Este 5 Nordeste 0 1018 0.7 92
2019-10-04 08:00:00 18.3 2 Este 7 Este 0 1017.5 0.1 91
2019-10-04 07:00:00 18.6 3 Este 8 Sudeste 0 1017.3 -0.5 90
2019-10-04 06:00:00 18.8 5 Sudeste 10 Sudeste 0 1017.3 -0.8 91
2019-10-04 05:00:00 19.1 7 Sudeste 10 Sudeste 0 1017.4 -1.2 91
2019-10-04 04:00:00 19.3 8 Sudeste 10 Sudeste 0 1017.8 -1.2 91
2019-10-04 03:00:00 19.3 6 Sur 12 Sudeste 0 1018.1 -1 91
2019-10-04 02:00:00 20 5 Sur 12 Sur 0 1018.6 -0.4 88
2019-10-04 01:00:00 20.2 5 Sudoeste 11 Sur 0 1019 -0.1 84
2019-10-04 00:00:00 20.4 5 Sudoeste 9 Sudoeste 0 1019.1 0.3 83
2019-10-03 23:00:00 20.4 4 Sudoeste 10 Sudoeste 0 1019 0.2 83
2019-10-03 22:00:00 20.6 5 Sudoeste 17 Sudoeste 0 1019.1 0.1 83
2019-10-03 21:00:00 20.5 11 Sudoeste 18 Sudoeste 0 1018.8 -0.6 83
2019-10-03 20:00:00 21 13 Sudoeste 21 Sudoeste 0 1018.8 -0.7 79
2019-10-03 19:00:00 22.1 12 Sudoeste 21 Sudoeste 0 1019 -0.8 69
2019-10-03 18:00:00 22.9 12 Sudoeste 20 Sudoeste 0 1019.4 -0.7 62
2019-10-03 17:00:00 22.7 10 Oeste 19 Sudoeste 0 1019.5 -1.1 63
2019-10-03 16:00:00 22.6 13 Oeste 22 Oeste 0 1019.8 -1 65
2019-10-03 15:00:00 22.2 12 Oeste 22 Oeste 0 1020.1 -1 66
2019-10-03 14:00:00 22.4 12 Sudoeste 21 Oeste 0 1020.6 -0.4 63
2019-10-03 13:00:00 22.3 10 Sudoeste 16 Sudoeste 0 1020.8 0.6 66
2019-10-03 12:00:00 21.6 4 Sur 11 Oeste 0 1021.1 1.6 66
2019-10-03 11:00:00 20.7 6 Sudoeste 12 Noroeste 0 1021 2.1 69
2019-10-03 10:00:00 19.5 5 Norte 10 Noroeste 0 1020.2 1.6 76
2019-10-03 09:00:00 19.1 6 Noroeste 9 Noroeste 0 1019.5 1.3 80
2019-10-03 08:00:00 18.3 4 Oeste 5 Noroeste 0 1018.9 0.8 83
2019-10-03 07:00:00 18.6 3 Oeste 6 Noroeste 0 1018.6 0.3 84
2019-10-03 06:00:00 18.9 0 Calma 8 Oeste 0 1018.2 -0.4 83
2019-10-03 05:00:00 19.1 5 Oeste 8 Noroeste 0 1018.1 -0.7 84
2019-10-03 04:00:00 20 5 Oeste 9 Oeste 0 1018.3 -0.8 81
2019-10-03 03:00:00 20.2 4 Oeste 17 Sudoeste 0 1018.6 -0.4 80
2019-10-03 02:00:00 20.4 6 Sudoeste 14 Sudoeste 0 1018.8 -0.2 88
2019-10-03 01:00:00 20.7 6 Sur 14 Sur 0 1019.1 0.5 88
2019-10-03 00:00:00 20.7 6 Sur 13 Sur 0 1019 0.4 86
2019-10-02 23:00:00 20.5 4 Sudoeste 17 Sudoeste 0 1019 0.8 84
2019-10-02 22:00:00 20.3 10 Sudoeste 19 Sudoeste 0 1018.6 0.3 81
2019-10-02 21:00:00 20.4 13 Oeste 24 Sudoeste 0 1018.6 0.4 77
2019-10-02 20:00:00 20.6 15 Sudoeste 25 Sudoeste 0 1018.2 -0.2 74
2019-10-02 19:00:00 21.3 15 Sudoeste 29 Oeste 0 1018.3 -0.6 69
2019-10-02 18:00:00 22.6 16 Sudoeste 27 Sudoeste 0 1018.2 -0.9 65
2019-10-02 17:00:00 23 15 Oeste 25 Oeste 0 1018.4 -1.2 60
2019-10-02 16:00:00 22.8 16 Oeste 26 Oeste 0 1018.9 -0.5 59
2019-10-02 15:00:00 20.8 17 Oeste 27 Oeste 0 1019.1 -0.5 71
2019-10-02 14:00:00 20.1 16 Oeste 28 Noroeste 0 1019.6 0.2 75
2019-10-02 13:00:00 19.7 19 Noroeste 32 Oeste 0 1019.4 0.5 77
2019-10-02 12:00:00 19.3 18 Noroeste 28 Noroeste 0 1019.6 1.2 79
2019-10-02 11:00:00 19.2 19 Noroeste 28 Noroeste 0 1019.4 1.5 80
2019-10-02 10:00:00 19.3 16 Noroeste 28 Noroeste 0 1018.9 1.3 80
2019-10-02 09:00:00 19.3 16 Noroeste 23 Noroeste 0 1018.4 1 80
2019-10-02 08:00:00 19.5 12 Noroeste 26 Noroeste 0 1017.9 0.7 78
2019-10-02 07:00:00 19.9 14 Noroeste 30 Noroeste 0 1017.6 0 79
2019-10-02 06:00:00 20.4 19 Noroeste 30 Noroeste 0 1017.4 -0.7 77
2019-10-02 05:00:00 20.8 17 Noroeste 27 Noroeste 0 1017.2 -0.5 77
2019-10-02 04:00:00 21.5 19 Noroeste 32 Noroeste 0 1017.6 -0.2 72
2019-10-02 03:00:00 21.7 24 Noroeste 36 Noroeste 0 1018.1 0.4 73
2019-10-02 02:00:00 22.2 25 Noroeste 38 Noroeste 0 1017.7 0.2 75
2019-10-02 01:00:00 22.9 22 Noroeste 35 Norte 0 1017.8 0.9 75
2019-10-02 00:00:00 22.3 17 Oeste 28 Oeste 0 1017.7 1.2 83
2019-10-01 23:00:00 22 18 Oeste -- -- -- 1017.5 1.1 86
2019-10-01 22:00:00 22.2 19 Oeste 32 Oeste 0 1016.9 -- 84
2019-10-01 21:00:00 22.2 21 Oeste 37 Oeste 0 1016.5 -- 83
2019-10-01 20:00:00 22.4 23 Oeste -- -- -- 1016.4 -0.1 77
2019-10-01 19:00:00 -- -- -- -- -- -- -- -- --
2019-10-01 18:00:00 -- -- -- -- -- -- -- -- --
2019-10-01 17:00:00 23.4 23 Oeste 36 Oeste 0 1016.5 -0.8 71
2019-10-01 16:00:00 23.3 22 Oeste 34 Oeste 0 1016.8 -0.7 70
2019-10-01 15:00:00 23 21 Noroeste 33 Oeste 0 1017 -0.5 69
2019-10-01 14:00:00 22.5 22 Noroeste 35 Noroeste 0 1017.3 0 73
2019-10-01 13:00:00 21.9 22 Noroeste 33 Noroeste 0 1017.5 1.2 76
2019-10-01 12:00:00 21.3 20 Noroeste 29 Noroeste 0 1017.5 1.8 80
2019-10-01 11:00:00 21.5 14 Noroeste 24 Noroeste 0 1017.3 2.1 80
2019-10-01 10:00:00 20.8 8 Noroeste 19 Noroeste 0 1016.3 1.5 79
2019-10-01 09:00:00 20.4 11 Noroeste 20 Noroeste 0 1015.7 1 79
2019-10-01 08:00:00 20.7 12 Noroeste 20 Noroeste 0 1015.2 0.5 80
2019-10-01 07:00:00 20.1 7 Oeste 12 Oeste 0 1014.8 -0.2 87
2019-10-01 06:00:00 19.8 3 Sudoeste 5 Sur 0 1014.7 -1 88
2019-10-01 05:00:00 19.9 2 Este 4 Sudeste 0 1014.7 -0.8 84
2019-10-01 04:00:00 20.2 3 Este 5 Este 0 1015 -0.2 75
2019-10-01 03:00:00 21.3 4 Norte 8 Norte 0 1015.7 0.5 78
2019-10-01 02:00:00 20.8 4 Norte 5 Norte 0 1015.5 0.5 78
2019-10-01 01:00:00 21.1 0 Calma 7 Norte 0 1015.2 0.3 81
2019-10-01 00:00:00 22 6 Norte 14 Noroeste 0 1015.2 0.7 83
2019-09-30 23:00:00 22.6 10 Noroeste 17 Noroeste 0 1015 0.3 73
2019-09-30 22:00:00 23.2 5 Norte 14 Norte 0 1014.9 0.1 55
2019-09-30 21:00:00 23.8 10 Noroeste 21 Noroeste 0 1014.5 -0.6 53
2019-09-30 20:00:00 24 14 Noroeste 21 Noroeste 0 1014.7 -0.9 57
2019-09-30 19:00:00 24.5 13 Noroeste 19 Noroeste 0 1014.8 -1.5 60
2019-09-30 18:00:00 25.1 14 Noroeste 18 Noroeste 0 1015.1 -1.4 53
2019-09-30 17:00:00 25.9 9 Oeste 13 Noroeste 0 1015.6 -1.9 54
2019-09-30 16:00:00 25.9 7 Oeste 11 Oeste 0 1016.3 -1.4 52
2019-09-30 15:00:00 24.8 3 Norte 19 Oeste 0 1016.5 -1.6 61
2019-09-30 14:00:00 24.3 6 Oeste 12 Sudoeste 0 1017.5 -0.7 67
2019-09-30 13:00:00 22.3 4 Sur 7 Sur 0 1017.7 -0.3 73
2019-09-30 12:00:00 19.9 4 Sudeste 8 Este 0 1018.1 0.8 83
2019-09-30 11:00:00 18.6 3 Este 10 Sudeste 0 1018.2 1 90
2019-09-30 10:00:00 18.2 4 Sudeste 12 Sudeste 0 1018 0.9 93
2019-09-30 09:00:00 18.2 7 Sudeste 16 Sudeste 0 1017.3 0.5 95
2019-09-30 08:00:00 18.4 8 Sur 15 Sudeste 0 1017.2 0 95
2019-09-30 07:00:00 19.2 6 Sur 14 Sur 0 1017.1 -0.3 94
2019-09-30 06:00:00 19.7 0 Calma 8 Sur 0 1016.8 -0.9 95
2019-09-30 05:00:00 19.9 4 Sur 9 Sudeste 0 1017.2 -0.9 94
2019-09-30 04:00:00 20.1 5 Sudeste 11 Sudeste 0 1017.4 -0.8 94
2019-09-30 03:00:00 20.5 7 Sudeste 10 Sudeste 0 1017.7 -0.3 94
2019-09-30 02:00:00 20.5 4 Sur 9 Sur 0 1018.1 0.1 94
2019-09-30 01:00:00 20.4 4 Sur 8 Sur 0 1018.2 0.5 93
2019-09-30 00:00:00 20.5 4 Sudoeste 6 Sudoeste 0 1018 0.9 92
2019-09-29 23:00:00 20.8 3 Sudoeste 8 Sudoeste 0 1018 1 91
2019-09-29 22:00:00 21 4 Sudoeste 6 Sudoeste 0 1017.7 0.4 89
2019-09-29 21:00:00 21.2 4 Sudoeste 9 Oeste 0 1017.1 -0.4 87
2019-09-29 20:00:00 22.1 6 Sudoeste 15 Sudoeste 0 1017 -0.8 83
2019-09-29 19:00:00 23.4 10 Sudoeste 18 Sudoeste 0 1017.3 -0.8 77
2019-09-29 18:00:00 23.8 8 Sudoeste 19 Sudoeste 0 1017.5 -1 75
2019-09-29 17:00:00 23.8 13 Sudoeste 22 Sudoeste 0 1017.8 -1.3 76
2019-09-29 16:00:00 24 12 Sudoeste 22 Sudoeste 0 1018.1 -1.1 72
2019-09-29 15:00:00 23.4 13 Sudoeste 24 Sur 0 1018.5 -0.7 75
2019-09-29 14:00:00 23.3 17 Sur 32 Sur 0 1019.1 0.2 76
2019-09-29 13:00:00 24.5 9 Sudoeste 18 Sur 0 1019.2 0.9 64
2019-09-29 12:00:00 24.9 8 Sudoeste 13 Oeste 0 1019.2 1.3 63
2019-09-29 11:00:00 23 5 Sudeste 9 Este 0 1018.9 1.5 70
2019-09-29 10:00:00 22.2 6 Sudeste 9 Sudeste 0 1018.3 1.1 75
2019-09-29 09:00:00 20.8 4 Sudeste 13 Sur 0 1017.9 1 76
2019-09-29 08:00:00 20.8 6 Sur 12 Este 0 1017.4 0.5 76
2019-09-29 07:00:00 20.7 8 Este 15 Este 0 1017.2 0 78
2019-09-29 06:00:00 21 12 Este 19 Sudeste 0 1016.9 -0.6 77
2019-09-29 05:00:00 21.4 14 Sudeste 19 Este 0 1016.9 -0.4 76
2019-09-29 04:00:00 21.5 15 Este 22 Este 0 1017.2 -0.4 77
2019-09-29 03:00:00 21.8 10 Sudeste 15 Este 0 1017.5 -0.2 75
2019-09-29 02:00:00 21.6 4 Nordeste 9 Nordeste 0 1017.3 -0.4 82
2019-09-29 01:00:00 22 5 Norte 6 Norte 0 1017.6 0.2 85
2019-09-29 00:00:00 22 4 Norte 9 Norte 0 1017.7 0.7 85
2019-09-28 23:00:00 22.2 4 Norte 8 Noroeste 0 1017.7 0.7 86
2019-09-28 22:00:00 22.4 5 Norte 8 Noroeste 0 1017.4 0.2 88
2019-09-28 21:00:00 23 4 Noroeste 8 Oeste 0 1017 -0.2 77
2019-09-28 20:00:00 24 5 Oeste 11 Sudoeste 0 1017 -0.3 73
2019-09-28 19:00:00 25.3 5 Sudoeste 15 Oeste 0 1017.2 -0.5 62
2019-09-28 18:00:00 25.5 8 Oeste 17 Oeste 0 1017.2 -0.9 62
2019-09-28 17:00:00 25.5 10 Oeste 18 Sudoeste 0 1017.3 -1.5 62
2019-09-28 16:00:00 25.5 12 Sudoeste 18 Sudoeste 0 1017.7 -1.6 63
2019-09-28 15:00:00 25.6 10 Sudoeste 16 Sudoeste 0 1018.1 -1.4 63
2019-09-28 14:00:00 24.8 7 Sur 13 Sudoeste 0 1018.8 -0.5 66
2019-09-28 13:00:00 23.5 7 Sur 14 Sur 0 1019.3 0.6 74
2019-09-28 12:00:00 23.5 6 Sur 13 Sur 0 1019.5 1.3 73
2019-09-28 11:00:00 21.6 2 Sudeste 5 Nordeste 0 1019.3 2 71
2019-09-28 10:00:00 20 4 Nordeste 8 Nordeste 0 1018.7 1.4 72
2019-09-28 09:00:00 19.6 5 Nordeste 14 Sudeste 0 1018.2 1 81
2019-09-28 08:00:00 19.9 7 Sudeste 12 Sudeste 0 1017.3 0.1 85
2019-09-28 07:00:00 20.2 3 Sudeste 8 Sudeste 0 1017.3 -0.1 85
2019-09-28 06:00:00 20.4 5 Sur 9 Sur 0 1017.2 -0.6 80
2019-09-28 05:00:00 20.5 6 Sudeste 9 Sudeste 0 1017.2 -1.2 83
2019-09-28 04:00:00 20.7 5 Sudeste 10 Sudeste 0 1017.4 -1.2 85
2019-09-28 03:00:00 20.9 5 Sudeste 9 Sur 0 1017.8 -1 85
2019-09-28 02:00:00 20.8 4 Sur 7 Sudeste 0 1018.4 -0.2 88
2019-09-28 01:00:00 20.9 0 Calma 4 Sur 0 1018.6 0.4 87
2019-09-28 00:00:00 20.9 2 Sudoeste 3 Oeste 0 1018.8 1.1 84
2019-09-27 23:00:00 21.2 2 Sudoeste 4 Sudoeste 0 1018.6 1.2 80
2019-09-27 22:00:00 21.9 0 Calma 13 Oeste 0 1018.2 0.7 78
2019-09-27 21:00:00 22.3 9 Noroeste 15 Oeste 0 1017.7 0 76
2019-09-27 20:00:00 22.8 10 Oeste 19 Noroeste 0 1017.4 -0.6 74
2019-09-27 19:00:00 23.4 12 Oeste 21 Oeste 0 1017.5 -0.9 74
2019-09-27 18:00:00 24.3 12 Oeste 28 Oeste 0 1017.7 -1.1 75
2019-09-27 17:00:00 23.5 13 Oeste 20 Oeste 0 1018 -1.4 80
2019-09-27 16:00:00 24.5 10 Sudoeste 19 Oeste 0 1018.4 -1.3 71
2019-09-27 15:00:00 24.4 9 Sudoeste 19 Sudoeste 0 1018.8 -0.9 72
2019-09-27 14:00:00 24.3 10 Sudoeste 18 Sudoeste 0 1019.4 0 72
2019-09-27 13:00:00 23.5 8 Sudoeste 16 Sudoeste 0 1019.7 0.8 75
2019-09-27 12:00:00 23.3 7 Sudoeste 15 Sudoeste 0 1019.7 1.3 78
2019-09-27 11:00:00 22.5 7 Sur 14 Sur 0 1019.4 1.3 75
2019-09-27 10:00:00 21.1 8 Sudeste 16 Sudeste 0 1018.9 0.9 79
2019-09-27 09:00:00 20.6 8 Sudeste 16 Este 0 1018.4 0.3 83
2019-09-27 08:00:00 20.3 12 Este 17 Este 0 1018.1 0.2 85
2019-09-27 07:00:00 20.4 10 Este 13 Este 0 1018 -0.2 82
2019-09-27 06:00:00 20.2 3 Nordeste 8 Este 0 1018.1 -0.4 80
2019-09-27 05:00:00 20.3 4 Nordeste 7 Nordeste 0 1017.9 -0.6 84
2019-09-27 04:00:00 20.5 2 Nordeste 5 Nordeste 0 1018.2 -0.6 84
2019-09-27 03:00:00 20.8 0 Calma 4 Nordeste 0 1018.5 -0.3 81
2019-09-27 02:00:00 21.1 3 Norte 4 Norte 0 1018.5 0 85
2019-09-27 01:00:00 21.5 0 Calma 9 Noroeste 0 1018.8 1.1 82
2019-09-27 00:00:00 22 3 Norte 6 Noroeste 0 1018.8 1.4 80
2019-09-26 23:00:00 22 0 Calma 13 Noroeste 0 1018.5 1.2 75
2019-09-26 22:00:00 22.6 11 Noroeste 15 Noroeste 0 1017.7 0.5 74
2019-09-26 21:00:00 23 8 Noroeste 15 Noroeste 0 1017.4 0.1 69
2019-09-26 20:00:00 23.5 12 Noroeste 17 Oeste 0 1017.3 -0.3 72
2019-09-26 19:00:00 24.9 10 Oeste 21 Oeste 0 1017.2 -0.9 60
2019-09-26 18:00:00 26 12 Oeste 21 Oeste 0 1017.3 -1.1 48
2019-09-26 17:00:00 25.9 13 Oeste 21 Oeste 0 1017.6 -1.3 50
2019-09-26 16:00:00 24.4 12 Oeste 17 Oeste 0 1018.1 -1.2 60
2019-09-26 15:00:00 23.9 9 Oeste 14 Oeste 0 1018.4 -1.2 69
2019-09-26 14:00:00 24.1 6 Oeste 12 Oeste 0 1018.9 -0.1 69
2019-09-26 13:00:00 23.5 6 Sudoeste 12 Sur 0 1019.3 0.8 70
2019-09-26 12:00:00 22.8 0 Calma 8 Sudoeste 0 1019.6 1.8 74
2019-09-26 11:00:00 20.9 3 Nordeste 6 Este 0 1019 1.5 78
2019-09-26 10:00:00 19.9 3 Este 7 Este 0 1018.5 1.5 81
2019-09-26 09:00:00 18.3 6 Norte 8 Nordeste 0 1017.8 1 87
2019-09-26 08:00:00 18.4 3 Nordeste 6 Nordeste 0 1017.5 0.7 88
2019-09-26 07:00:00 18.4 4 Nordeste 8 Norte 0 1017 0.4 87
2019-09-26 06:00:00 19 5 Nordeste 7 Nordeste 0 1016.8 0.1 89
2019-09-26 05:00:00 19.7 4 Este 11 Sudeste 0 1016.8 0 88
2019-09-26 04:00:00 20.1 9 Sudeste 14 Sudeste 0 1016.6 -0.4 88
2019-09-26 03:00:00 20.4 13 Sudeste 16 Sudeste 0 1016.7 -0.4 86
2019-09-26 02:00:00 21.6 2 Sudeste 5 Sudeste 0 1016.8 -0.2 82
2019-09-26 01:00:00 21.5 3 Oeste 7 Noroeste 0 1017 0.1 76
2019-09-26 00:00:00 22.2 5 Noroeste 21 Noroeste 0 1017.1 0.3 74
2019-09-25 23:00:00 22.1 14 Noroeste 22 Noroeste 0 1017 0.3 72
2019-09-25 22:00:00 21.8 13 Noroeste 20 Noroeste 0 1016.9 0.1 76
2019-09-25 21:00:00 21.7 13 Noroeste 23 Noroeste 0 1016.8 -0.4 77
2019-09-25 20:00:00 22.3 14 Oeste 23 Oeste 0 1016.7 -0.8 75
2019-09-25 19:00:00 23 17 Noroeste 27 Oeste 0 1016.8 -1.1 70
2019-09-25 18:00:00 23.4 17 Oeste 24 Oeste 0 1017.2 -1.1 65
2019-09-25 17:00:00 24.1 16 Oeste 25 Oeste 0 1017.5 -1.1 62
2019-09-25 16:00:00 23.1 18 Oeste 28 Oeste 0 1017.9 -1.2 66
2019-09-25 15:00:00 23 19 Oeste 28 Oeste 0 1018.3 -1.1 67
2019-09-25 14:00:00 22.3 19 Oeste 28 Noroeste 0 1018.6 -0.7 71
2019-09-25 13:00:00 22 18 Noroeste 24 Noroeste 0 1019.1 0.4 73
2019-09-25 12:00:00 22.2 16 Noroeste 23 Noroeste 0 1019.4 1.1 75
2019-09-25 11:00:00 22.3 13 Norte 21 Noroeste 0 1019.3 1.6 68
2019-09-25 10:00:00 21.1 16 Noroeste 21 Noroeste 0 1018.7 1 76
2019-09-25 09:00:00 20.9 17 Noroeste 22 Norte 0 1018.3 0.7 79
2019-09-25 08:00:00 21.3 17 Norte 24 Norte 0 1017.7 0.2 81
2019-09-25 07:00:00 21.8 15 Norte 19 Norte 0 1017.7 -0.1 82
2019-09-25 06:00:00 22.3 13 Noroeste 17 Noroeste 0 1017.6 -0.4 82
2019-09-25 05:00:00 22.6 13 Norte 21 Noroeste 0 1017.5 -0.5 84
2019-09-25 04:00:00 23.1 17 Norte 22 Norte 0 1017.8 -0.6 84
2019-09-25 03:00:00 23.4 15 Noroeste 22 Noroeste 0 1018 -0.6 80
2019-09-25 02:00:00 23.4 14 Noroeste 19 Noroeste 0 1018 -0.4 80
2019-09-25 01:00:00 23.2 8 Noroeste 15 Noroeste 0 1018.4 0.2 81
2019-09-25 00:00:00 23.4 5 Norte 17 Noroeste 0 1018.6 0.7 75
2019-09-24 23:00:00 23 13 Noroeste 27 Oeste 0 1018.4 0.8 69
2019-09-24 22:00:00 22.7 21 Noroeste 31 Oeste 0 1018.2 0.3 73
2019-09-24 21:00:00 22.8 18 Noroeste 28 Oeste 0 1017.9 0 74
2019-09-24 20:00:00 23.8 14 Oeste 25 Oeste 0 1017.6 -0.7 74
2019-09-24 19:00:00 24.5 18 Oeste 27 Oeste 0 1017.9 -0.9 59
2019-09-24 18:00:00 24.4 18 Oeste 29 Oeste 0 1017.9 -1.5 69
2019-09-24 17:00:00 25 20 Oeste 27 Oeste 0 1018.3 -1.8 62
2019-09-24 16:00:00 26.2 15 Sudoeste 23 Sudoeste 0 1018.8 -1.7 56
2019-09-24 15:00:00 26.2 13 Sudoeste 18 Sudoeste 0 1019.4 -1.3 53
2019-09-24 14:00:00 26.2 9 Oeste 13 Oeste 0 1020.1 -0.6 50
2019-09-24 13:00:00 24.5 4 Sur 10 Noroeste 0 1020.5 0.7 61
2019-09-24 12:00:00 22 5 Noroeste 9 Norte 0 1020.7 1.1 65
2019-09-24 11:00:00 20.5 8 Norte 10 Norte 0 1020.7 1.5 70
2019-09-24 10:00:00 19.1 7 Norte 9 Norte 0 1019.8 1 77
2019-09-24 09:00:00 18.6 3 Norte 7 Norte 0 1019.6 0.8 76
2019-09-24 08:00:00 18.3 0 Calma 7 Nordeste 0 1019.2 0.3 81
2019-09-24 07:00:00 19 4 Norte 7 Noroeste 0 1018.8 -0.4 80
2019-09-24 06:00:00 19.3 2 Norte 5 Nordeste 0 1018.8 -0.7 79
2019-09-24 05:00:00 19.6 2 Norte 6 Este 0 1018.9 -0.9 82
2019-09-24 04:00:00 20.1 4 Este 5 Este 0 1019.2 -0.6 81
2019-09-24 03:00:00 20.8 4 Sudeste 8 Este 0 1019.5 -0.4 75
2019-09-24 02:00:00 20.6 2 Este 8 Este 0 1019.8 0.2 78
2019-09-24 01:00:00 20.8 4 Nordeste 14 Norte 0 1019.8 0.4 78
2019-09-24 00:00:00 21.9 13 Norte 25 Noroeste 0 1019.9 1 77
2019-09-23 23:00:00 21.9 15 Noroeste 25 Noroeste 0 1019.6 0.9 77
2019-09-23 22:00:00 22.1 15 Noroeste 24 Noroeste 0 1019.4 0.8 75
2019-09-23 21:00:00 22.8 18 Noroeste 27 Noroeste 0 1018.9 0.2 68
2019-09-23 20:00:00 23.2 18 Noroeste 30 Noroeste 0 1018.7 -0.3 65
2019-09-23 19:00:00 23.5 18 Noroeste 29 Noroeste 0 1018.6 -0.5 64
2019-09-23 18:00:00 24.1 21 Oeste 33 Noroeste 0 1018.7 -0.7 63
2019-09-23 17:00:00 24.1 21 Noroeste 34 Oeste 0 1019 -0.8 65
2019-09-23 16:00:00 24.1 24 Noroeste 32 Noroeste 0 1019.1 -0.8 61
2019-09-23 15:00:00 25 19 Noroeste 23 Noroeste 0 1019.4 -1.2 58
2019-09-23 14:00:00 25.1 13 Noroeste 18 Noroeste 0 1019.8 -0.7 50
2019-09-23 13:00:00 24 10 Noroeste 17 Norte 0 1019.9 -0.2 60
2019-09-23 12:00:00 22.6 11 Norte 19 Norte 0 1020.6 1 63
2019-09-23 11:00:00 20.9 11 Norte 17 Norte 0 1020.5 1.3 68
2019-09-23 10:00:00 19 9 Norte 13 Nordeste 0 1020.1 1.3 79
2019-09-23 09:00:00 19 10 Norte 15 Nordeste 0 1019.6 1.1 75
2019-09-23 08:00:00 19 12 Norte 15 Norte 0 1019.2 1 78
2019-09-23 07:00:00 19.1 8 Norte 17 Norte 0 1018.8 0.5 76
2019-09-23 06:00:00 20 13 Norte 17 Norte 0 1018.5 -0.1 72
2019-09-23 05:00:00 20.3 12 Norte 19 Norte 0 1018.2 -0.5 72
2019-09-23 04:00:00 20.3 6 Norte 22 Norte 0 1018.3 -0.7 81
2019-09-23 03:00:00 21.6 13 Norte 19 Noroeste 0 1018.6 -0.3 81
2019-09-23 02:00:00 21.6 12 Noroeste 18 Noroeste 0 1018.7 -0.4 78
2019-09-23 01:00:00 21.7 13 Noroeste 22 Noroeste 0 1019 0.3 78
2019-09-23 00:00:00 21.6 13 Oeste 24 Oeste 0 1018.9 1 78
2019-09-22 23:00:00 21.5 15 Oeste 27 Oeste 0 1019.1 1.6 80
2019-09-22 22:00:00 21.5 17 Oeste 29 Oeste 0 1018.7 1.3 82
2019-09-22 21:00:00 21.3 17 Oeste 27 Oeste 0 1017.9 0.5 81
2019-09-22 20:00:00 21.7 18 Oeste 29 Oeste 0 1017.5 0.1 79
2019-09-22 19:00:00 22.2 17 Oeste 29 Oeste 0 1017.4 0.1 76
2019-09-22 18:00:00 22.8 18 Oeste 28 Oeste 0 1017.4 -0.1 74
2019-09-22 17:00:00 23.1 18 Oeste 28 Oeste 0 1017.4 0 69
2019-09-22 16:00:00 22.4 18 Noroeste 27 Oeste 0 1017.3 -0.3 74
2019-09-22 15:00:00 21.8 18 Noroeste 28 Noroeste 0 1017.5 0.2 74
2019-09-22 14:00:00 21.9 17 Noroeste 27 Noroeste 0 1017.4 0.4 73
2019-09-22 13:00:00 21.4 19 Noroeste 31 Noroeste 0 1017.6 1.1 71
2019-09-22 12:00:00 21.5 18 Noroeste 28 Noroeste 0 1017.3 1.7 69
2019-09-22 11:00:00 21 16 Noroeste 23 Noroeste 0 1017 2.1 74
2019-09-22 10:00:00 20.6 14 Noroeste 21 Noroeste 0 1016.5 2.1 85
2019-09-22 09:00:00 19.9 12 Noroeste 22 Oeste 0.2 1015.6 1.5 93
2019-09-22 08:00:00 20.3 16 Oeste 48 Noroeste 0.7 1014.9 0.7 94
2019-09-22 07:00:00 21.4 14 Oeste 25 Sur 0.2 1014.4 -0.2 91
2019-09-22 06:00:00 22.3 11 Sur 23 Sur 0 1014.1 -0.7 91
2019-09-22 05:00:00 22.2 13 Sur 22 Sur 0 1014.2 -0.6 91
2019-09-22 04:00:00 22.1 8 Sur 24 Sur 0 1014.6 -0.4 91
2019-09-22 03:00:00 22.1 14 Sur 21 Sudeste 0 1014.8 -0.5 91
2019-09-22 02:00:00 21.9 12 Sur 18 Sudeste 0 1014.8 -0.5 90
2019-09-22 01:00:00 22.1 9 Sur 15 Sur 0 1015 0.3 89
2019-09-22 00:00:00 22.1 6 Sur 13 Sudoeste 0 1015.3 1.1 88